createdAt,value
2023-04-08T00:00:55.004Z,0.00
2023-04-08T00:03:22.984Z,0.10
2023-04-08T00:05:51.096Z,0.00
2023-04-08T00:08:19.097Z,0.00
2023-04-08T00:10:47.090Z,0.00
2023-04-08T00:13:14.945Z,0.00
2023-04-08T00:15:43.069Z,0.00
2023-04-08T00:18:12.485Z,0.00
2023-04-08T00:20:40.508Z,0.00
2023-04-08T00:23:08.420Z,0.00
2023-04-08T00:25:36.272Z,0.00
2023-04-08T00:28:04.201Z,0.00
2023-04-08T00:30:32.079Z,0.00
2023-04-08T00:33:00.044Z,0.00
2023-04-08T00:35:30.417Z,0.00
2023-04-08T00:37:58.396Z,0.00
2023-04-08T00:40:26.320Z,0.00
2023-04-08T00:43:01.996Z,0.00
2023-04-08T00:45:29.878Z,0.10
2023-04-08T00:47:57.995Z,0.00
2023-04-08T00:50:25.906Z,0.00
2023-04-08T00:52:55.022Z,0.00
2023-04-08T00:55:22.913Z,0.10
2023-04-08T00:57:50.765Z,0.10
2023-04-08T01:00:18.577Z,0.00
2023-04-08T01:02:52.612Z,0.10
2023-04-08T01:05:29.907Z,0.00
2023-04-08T01:08:03.043Z,0.00
2023-04-08T01:10:34.599Z,0.00
2023-04-08T01:13:06.256Z,0.05
2023-04-08T01:15:37.005Z,0.00
2023-04-08T01:18:08.315Z,0.00
2023-04-08T01:20:36.525Z,0.00
2023-04-08T01:23:14.253Z,0.00
2023-04-08T01:25:47.394Z,0.10
2023-04-08T01:28:18.884Z,0.00
2023-04-08T01:30:47.959Z,0.00
2023-04-08T01:33:18.805Z,0.00
2023-04-08T01:35:47.401Z,0.20
2023-04-08T01:38:19.172Z,0.10
2023-04-08T01:40:49.782Z,0.10
2023-04-08T01:43:19.154Z,0.10
2023-04-08T01:45:49.053Z,0.00
2023-04-08T01:48:17.437Z,0.00
2023-04-08T01:50:46.528Z,0.00
2023-04-08T01:53:15.026Z,0.10
2023-04-08T01:55:44.306Z,0.00
2023-04-08T01:58:21.276Z,0.00
2023-04-08T02:00:50.553Z,0.00
2023-04-08T02:03:21.307Z,0.08
2023-04-08T02:05:49.364Z,0.00
2023-04-08T02:08:17.158Z,0.00
2023-04-08T02:10:44.927Z,0.10
2023-04-08T02:13:12.755Z,0.10
2023-04-08T02:15:47.387Z,0.10
2023-04-08T02:18:18.071Z,0.10
2023-04-08T02:20:51.490Z,0.10
2023-04-08T02:23:22.662Z,0.10
2023-04-08T02:25:51.531Z,0.00
2023-04-08T02:28:20.751Z,0.00
2023-04-08T02:30:52.286Z,0.00
2023-04-08T02:33:22.482Z,0.10
2023-04-08T02:35:54.570Z,0.00
2023-04-08T02:38:24.237Z,0.08
2023-04-08T02:40:52.457Z,0.00
2023-04-08T02:43:20.208Z,0.00
2023-04-08T02:45:48.136Z,0.05
2023-04-08T02:48:17.801Z,0.05
2023-04-08T02:50:45.592Z,0.10
2023-04-08T02:53:13.470Z,0.00
2023-04-08T02:55:41.669Z,0.00
2023-04-08T02:58:09.476Z,0.00
2023-04-08T03:00:39.687Z,0.03
2023-04-08T03:03:07.717Z,0.00
2023-04-08T03:05:36.965Z,0.00
2023-04-08T03:08:06.732Z,0.10
2023-04-08T03:10:34.642Z,0.03
2023-04-08T03:13:02.391Z,0.03
2023-04-08T03:15:30.297Z,0.10
2023-04-08T03:17:58.181Z,0.10
2023-04-08T03:20:26.344Z,0.10
2023-04-08T03:22:55.448Z,0.75
2023-04-08T03:25:23.207Z,0.10
2023-04-08T03:27:51.042Z,0.00
2023-04-08T03:30:19.073Z,0.10
2023-04-08T03:32:46.935Z,0.10
2023-04-08T03:35:14.716Z,0.10
2023-04-08T03:37:42.502Z,0.00
2023-04-08T03:40:13.233Z,0.15
2023-04-08T03:42:41.236Z,0.10
2023-04-08T03:45:09.763Z,0.10
2023-04-08T03:47:37.604Z,0.05
2023-04-08T03:50:05.952Z,0.00
2023-04-08T03:52:33.646Z,0.20
2023-04-08T03:55:01.414Z,0.08
2023-04-08T03:57:30.629Z,0.10
2023-04-08T03:59:58.492Z,0.10
2023-04-08T04:02:26.342Z,0.10
2023-04-08T04:04:54.345Z,0.20
2023-04-08T04:07:22.289Z,0.20
2023-04-08T04:09:54.068Z,0.10
2023-04-08T04:12:21.832Z,0.20
2023-04-08T04:14:51.287Z,0.10
2023-04-08T04:17:19.129Z,0.43
2023-04-08T04:19:47.055Z,0.10
2023-04-08T04:22:15.003Z,0.20
2023-04-08T04:24:48.302Z,0.30
2023-04-08T04:27:17.580Z,0.40
2023-04-08T04:29:45.457Z,0.20
2023-04-08T04:32:14.562Z,0.73
2023-04-08T04:34:42.441Z,0.55
2023-04-08T04:37:10.947Z,0.40
2023-04-08T04:39:38.706Z,0.20
2023-04-08T04:42:06.688Z,0.22
2023-04-08T04:44:34.512Z,0.43
2023-04-08T04:47:02.509Z,0.20
2023-04-08T04:49:31.642Z,0.30
2023-04-08T04:51:59.401Z,0.88
2023-04-08T04:54:27.222Z,0.50
2023-04-08T04:56:55.081Z,0.47
2023-04-08T04:59:22.873Z,0.90
2023-04-08T05:01:50.722Z,0.65
2023-04-08T05:04:18.559Z,0.60
2023-04-08T05:06:47.739Z,1.23
2023-04-08T05:09:15.583Z,0.45
2023-04-08T05:11:43.546Z,0.30
2023-04-08T05:14:11.456Z,0.63
2023-04-08T05:16:39.681Z,0.25
2023-04-08T05:19:07.652Z,0.73
2023-04-08T05:21:35.756Z,0.30
2023-04-08T05:24:05.180Z,0.75
2023-04-08T05:26:33.106Z,0.55
2023-04-08T05:29:00.928Z,0.82
2023-04-08T05:31:29.634Z,0.20
2023-04-08T05:33:57.435Z,0.70
2023-04-08T05:36:26.338Z,0.30
2023-04-08T05:38:54.116Z,0.38
2023-04-08T05:41:23.190Z,0.68
2023-04-08T05:43:50.944Z,0.10
2023-04-08T05:46:18.764Z,0.43
2023-04-08T05:48:46.828Z,0.35
2023-04-08T05:51:15.450Z,0.20
2023-04-08T05:53:43.405Z,0.10
2023-04-08T05:56:11.361Z,0.43
2023-04-08T05:58:41.031Z,0.22
2023-04-08T06:01:08.799Z,0.52
2023-04-08T06:03:36.730Z,0.30
2023-04-08T06:06:04.907Z,0.40
2023-04-08T06:08:32.793Z,1.10
2023-04-08T06:11:00.785Z,0.63
2023-04-08T06:13:56.977Z,0.22
2023-04-08T06:16:24.770Z,0.60
2023-04-08T06:18:52.982Z,0.43
2023-04-08T06:21:21.622Z,0.30
2023-04-08T06:23:49.434Z,0.30
2023-04-08T06:26:18.038Z,0.75
2023-04-08T06:28:47.208Z,0.68
2023-04-08T06:31:14.926Z,0.30
2023-04-08T06:33:42.634Z,0.40
2023-04-08T06:36:11.200Z,0.85
2023-04-08T06:38:39.167Z,0.35
2023-04-08T06:41:07.607Z,0.77
2023-04-08T06:43:37.921Z,0.47
2023-04-08T06:46:07.644Z,0.25
2023-04-08T06:48:37.510Z,0.50
2023-04-08T06:51:05.833Z,0.65
2023-04-08T06:53:33.724Z,0.43
2023-04-08T06:56:01.909Z,0.35
2023-04-08T06:58:29.795Z,0.93
2023-04-08T07:00:57.764Z,0.30
2023-04-08T07:03:26.965Z,0.20
2023-04-08T07:05:55.160Z,0.30
2023-04-08T07:08:22.926Z,0.98
2023-04-08T07:10:50.673Z,0.30
2023-04-08T07:13:18.382Z,0.40
2023-04-08T07:15:46.094Z,1.35
2023-04-08T07:18:14.021Z,0.25
2023-04-08T07:20:43.156Z,0.20
2023-04-08T07:23:10.931Z,0.70
2023-04-08T07:25:38.699Z,0.47
2023-04-08T07:28:07.533Z,0.40
2023-04-08T07:30:35.291Z,0.30
2023-04-08T07:33:03.095Z,0.20
2023-04-08T07:35:31.904Z,0.30
2023-04-08T07:38:01.142Z,0.35
2023-04-08T07:40:29.804Z,0.82
2023-04-08T07:42:57.656Z,0.25
2023-04-08T07:45:25.487Z,0.20
2023-04-08T07:47:53.252Z,0.22
2023-04-08T07:50:21.427Z,0.95
2023-04-08T07:52:49.212Z,0.15
2023-04-08T07:55:18.539Z,0.20
2023-04-08T07:57:46.644Z,0.47
2023-04-08T08:00:20.812Z,0.20
2023-04-08T08:02:49.192Z,0.10
2023-04-08T08:05:17.172Z,0.30
2023-04-08T08:07:45.720Z,0.20
2023-04-08T08:10:13.459Z,0.10
2023-04-08T08:12:42.830Z,0.45
2023-04-08T08:15:11.694Z,0.55
2023-04-08T08:17:39.507Z,0.50
2023-04-08T08:20:08.670Z,0.73
2023-04-08T08:22:41.808Z,0.10
2023-04-08T08:25:19.693Z,0.38
2023-04-08T08:27:49.078Z,0.17
2023-04-08T08:30:18.485Z,0.43
2023-04-08T08:32:47.214Z,0.50
2023-04-08T08:35:15.242Z,0.45
2023-04-08T08:37:43.215Z,0.68
2023-04-08T08:40:12.115Z,0.40
2023-04-08T08:42:40.709Z,0.10
2023-04-08T08:45:11.009Z,0.30
2023-04-08T08:47:38.929Z,0.30
2023-04-08T08:50:07.808Z,0.25
2023-04-08T08:52:35.545Z,0.43
2023-04-08T08:55:13.049Z,0.25
2023-04-08T08:57:51.354Z,0.30
2023-04-08T09:00:20.644Z,0.20
2023-04-08T09:02:48.655Z,0.28
2023-04-08T09:05:16.732Z,0.70
2023-04-08T09:07:44.875Z,1.02
2023-04-08T09:10:12.790Z,0.63
2023-04-08T09:12:55.739Z,1.25
2023-04-08T09:15:24.944Z,0.55
2023-04-08T09:17:52.956Z,0.35
2023-04-08T09:20:20.763Z,0.80
2023-04-08T09:22:59.371Z,1.20
2023-04-08T09:25:28.214Z,0.88
2023-04-08T09:27:56.238Z,0.50
2023-04-08T09:30:27.794Z,0.60
2023-04-08T09:32:57.098Z,0.85
2023-04-08T09:35:26.047Z,0.70
2023-04-08T09:37:53.908Z,1.10
2023-04-08T09:40:21.851Z,0.50
2023-04-08T09:42:52.395Z,1.27
2023-04-08T09:45:20.858Z,0.98
2023-04-08T09:47:58.342Z,0.20
2023-04-08T09:50:32.293Z,1.00
2023-04-08T09:53:03.315Z,0.43
2023-04-08T09:55:35.794Z,0.60
2023-04-08T09:58:07.985Z,0.38
2023-04-08T10:00:41.149Z,0.32
2023-04-08T10:03:15.982Z,1.27
2023-04-08T10:05:44.880Z,0.55
2023-04-08T10:08:12.636Z,1.05
2023-04-08T10:10:41.701Z,0.20
2023-04-08T10:13:09.980Z,0.32
2023-04-08T10:15:40.832Z,0.60
2023-04-08T10:18:34.904Z,0.57
2023-04-08T10:21:03.525Z,1.42
2023-04-08T10:23:59.182Z,1.00
2023-04-08T10:26:38.176Z,1.08
2023-04-08T10:29:42.626Z,0.40
2023-04-08T10:32:13.902Z,0.80
2023-04-08T10:34:53.803Z,0.52
2023-04-08T10:37:21.492Z,0.98
2023-04-08T10:39:55.494Z,0.50
2023-04-08T10:42:28.757Z,0.50
2023-04-08T10:45:01.421Z,0.40
2023-04-08T10:47:29.193Z,0.73
2023-04-08T10:49:58.307Z,0.38
2023-04-08T10:52:27.506Z,0.55
2023-04-08T10:54:55.771Z,0.30
2023-04-08T10:57:26.963Z,0.40
2023-04-08T10:59:54.777Z,0.70
2023-04-08T11:02:22.631Z,0.22
2023-04-08T11:04:50.842Z,0.73
2023-04-08T11:07:22.687Z,1.85
2023-04-08T11:09:50.611Z,1.02
2023-04-08T11:12:19.134Z,0.98
2023-04-08T11:14:48.499Z,1.48
2023-04-08T11:17:17.807Z,0.22
2023-04-08T11:19:45.823Z,0.47
2023-04-08T11:22:14.474Z,1.30
2023-04-08T11:24:44.168Z,1.20
2023-04-08T11:27:12.123Z,1.15
2023-04-08T11:29:40.018Z,0.75
2023-04-08T11:32:08.920Z,1.23
2023-04-08T11:34:40.340Z,1.20
2023-04-08T11:37:08.074Z,1.23
2023-04-08T11:39:36.383Z,0.32
2023-04-08T11:42:05.517Z,1.15
2023-04-08T11:44:33.490Z,0.38
2023-04-08T11:47:10.344Z,0.63
2023-04-08T11:49:52.852Z,0.60
2023-04-08T11:52:38.896Z,1.25
2023-04-08T11:55:07.606Z,0.38
2023-04-08T11:57:37.652Z,0.75
2023-04-08T12:00:06.910Z,0.55
2023-04-08T12:02:38.598Z,0.77
2023-04-08T12:05:07.691Z,0.63
2023-04-08T12:07:35.597Z,0.50
2023-04-08T12:10:03.344Z,0.65
2023-04-08T12:12:31.120Z,0.40
2023-04-08T12:15:00.266Z,0.40
2023-04-08T12:17:28.145Z,1.20
2023-04-08T12:19:56.256Z,0.30
2023-04-08T12:22:26.429Z,0.65
2023-04-08T12:24:54.188Z,0.98
2023-04-08T12:27:21.911Z,0.77
2023-04-08T12:29:53.318Z,0.30
2023-04-08T12:32:22.980Z,0.47
2023-04-08T12:34:52.917Z,0.35
2023-04-08T12:37:23.747Z,0.55
2023-04-08T12:39:51.587Z,0.85
2023-04-08T12:42:19.353Z,0.35
2023-04-08T12:44:47.219Z,0.65
2023-04-08T12:47:15.064Z,0.90
2023-04-08T12:49:49.873Z,0.50
2023-04-08T12:52:21.002Z,0.25
2023-04-08T12:54:48.834Z,0.35
2023-04-08T12:57:19.483Z,0.82
2023-04-08T12:59:47.670Z,0.50
2023-04-08T13:02:15.584Z,0.10
2023-04-08T13:04:44.839Z,0.45
2023-04-08T13:07:12.583Z,0.50
2023-04-08T13:09:40.627Z,0.95
2023-04-08T13:12:08.745Z,0.68
2023-04-08T13:14:39.514Z,0.68
2023-04-08T13:17:07.326Z,1.15
2023-04-08T13:19:38.013Z,0.20
2023-04-08T13:22:07.184Z,0.82
2023-04-08T13:24:34.995Z,1.30
2023-04-08T13:27:03.540Z,0.52
2023-04-08T13:29:31.353Z,1.05
2023-04-08T13:31:59.258Z,0.50
2023-04-08T13:34:27.064Z,1.25
2023-04-08T13:36:54.821Z,0.40
2023-04-08T13:39:24.028Z,1.02
2023-04-08T13:41:52.314Z,0.85
2023-04-08T13:44:20.139Z,0.75
2023-04-08T13:46:47.980Z,0.32
2023-04-08T13:49:16.180Z,0.40
2023-04-08T13:51:46.981Z,0.20
2023-04-08T13:54:14.783Z,0.30
2023-04-08T13:56:43.877Z,0.20
2023-04-08T13:59:11.634Z,0.82
2023-04-08T14:01:40.599Z,0.30
2023-04-08T14:04:08.477Z,1.02
2023-04-08T14:06:36.547Z,1.25
2023-04-08T14:09:04.457Z,0.90
2023-04-08T14:11:32.236Z,0.50
2023-04-08T14:14:01.455Z,0.38
2023-04-08T14:16:30.986Z,0.95
2023-04-08T14:18:58.944Z,0.32
2023-04-08T14:21:26.862Z,0.50
2023-04-08T14:23:54.737Z,0.40
2023-04-08T14:26:22.648Z,0.32
2023-04-08T14:28:50.933Z,0.45
2023-04-08T14:31:20.276Z,0.20
2023-04-08T14:33:48.138Z,0.22
2023-04-08T14:36:16.061Z,0.75
2023-04-08T14:38:43.865Z,0.22
2023-04-08T14:41:11.613Z,0.30
2023-04-08T14:43:39.420Z,0.50
2023-04-08T14:46:07.401Z,0.47
2023-04-08T14:48:36.477Z,0.70
2023-04-08T14:51:04.334Z,0.40
2023-04-08T14:53:32.078Z,0.52
2023-04-08T14:55:59.813Z,0.20
2023-04-08T14:58:27.484Z,0.20
2023-04-08T15:00:55.709Z,0.22
2023-04-08T15:03:23.794Z,0.25
2023-04-08T15:06:01.235Z,0.77
2023-04-08T15:08:29.168Z,0.55
2023-04-08T15:10:56.971Z,0.93
2023-04-08T15:13:24.829Z,0.40
2023-04-08T15:15:52.804Z,0.60
2023-04-08T15:18:20.864Z,0.40
2023-04-08T15:20:48.615Z,0.22
2023-04-08T15:23:18.016Z,0.32
2023-04-08T15:25:46.289Z,0.38
2023-04-08T15:28:14.146Z,0.32
2023-04-08T15:30:42.126Z,0.60
2023-04-08T15:33:10.089Z,0.70
2023-04-08T15:35:38.931Z,1.00
2023-04-08T15:38:07.748Z,0.47
2023-04-08T15:40:38.934Z,0.60
2023-04-08T15:43:06.705Z,0.35
2023-04-08T15:45:34.500Z,1.05
2023-04-08T15:48:02.355Z,0.82
2023-04-08T15:50:31.348Z,1.05
2023-04-08T15:52:59.294Z,1.05
2023-04-08T15:55:27.094Z,0.63
2023-04-08T15:57:57.133Z,0.70
2023-04-08T16:00:25.057Z,0.47
2023-04-08T16:02:53.135Z,0.68
2023-04-08T16:05:21.463Z,0.40
2023-04-08T16:07:49.506Z,1.13
2023-04-08T16:10:17.505Z,0.43
2023-04-08T16:12:46.169Z,1.27
2023-04-08T16:15:15.370Z,1.00
2023-04-08T16:17:43.194Z,1.20
2023-04-08T16:20:12.260Z,0.68
2023-04-08T16:22:40.028Z,1.30
2023-04-08T16:25:08.697Z,0.40
2023-04-08T16:27:36.990Z,1.02
2023-04-08T16:30:05.467Z,1.55
2023-04-08T16:32:34.623Z,1.02
2023-04-08T16:35:02.467Z,1.38
2023-04-08T16:37:30.460Z,1.27
2023-04-08T16:39:58.453Z,1.45
2023-04-08T16:42:26.570Z,1.27
2023-04-08T16:44:57.112Z,1.77
2023-04-08T16:47:25.115Z,1.05
2023-04-08T16:49:54.613Z,1.27
2023-04-08T16:52:23.261Z,2.03
2023-04-08T16:54:52.255Z,1.50
2023-04-08T16:57:20.006Z,0.95
2023-04-08T16:59:48.065Z,0.75
2023-04-08T17:02:16.097Z,0.68
2023-04-08T17:04:44.021Z,0.65
2023-04-08T17:07:14.555Z,1.33
2023-04-08T17:09:42.630Z,3.13
2023-04-08T17:12:10.435Z,4.15
2023-04-08T17:14:38.266Z,2.50
2023-04-08T17:17:06.121Z,2.67
2023-04-08T17:19:33.910Z,0.77
2023-04-08T17:22:03.680Z,1.23
2023-04-08T17:24:33.015Z,1.38
2023-04-08T17:27:01.078Z,1.10
2023-04-08T17:29:28.867Z,1.23
2023-04-08T17:31:56.692Z,0.80
2023-04-08T17:34:24.858Z,1.27
2023-04-08T17:36:52.788Z,1.20
2023-04-08T17:39:20.608Z,0.68
2023-04-08T17:41:49.694Z,0.88
2023-04-08T17:44:17.613Z,1.10
2023-04-08T17:46:45.536Z,1.83
2023-04-08T17:49:14.198Z,0.90
2023-04-08T17:51:42.188Z,1.13
2023-04-08T17:54:10.079Z,1.02
2023-04-08T17:56:37.843Z,0.47
2023-04-08T17:59:07.277Z,1.05
2023-04-08T18:01:37.167Z,0.73
2023-04-08T18:04:06.725Z,0.43
2023-04-08T18:06:34.653Z,0.20
2023-04-08T18:09:06.215Z,0.40
2023-04-08T18:11:34.007Z,0.82
2023-04-08T18:14:01.838Z,0.90
2023-04-08T18:16:31.192Z,0.50
2023-04-08T18:18:59.232Z,0.38
2023-04-08T18:21:27.217Z,0.60
2023-04-08T18:23:56.396Z,0.50
2023-04-08T18:26:26.992Z,0.52
2023-04-08T18:28:55.201Z,1.52
2023-04-08T18:31:26.682Z,1.05
2023-04-08T18:33:55.946Z,0.90
2023-04-08T18:36:23.744Z,0.90
2023-04-08T18:38:51.868Z,0.85
2023-04-08T18:41:23.240Z,0.45
2023-04-08T18:43:51.175Z,1.10
2023-04-08T18:46:20.228Z,0.77
2023-04-08T18:48:49.128Z,0.47
2023-04-08T18:51:27.195Z,0.65
2023-04-08T18:53:55.219Z,0.55
2023-04-08T18:56:23.034Z,0.10
2023-04-08T18:58:54.523Z,0.50
2023-04-08T19:01:24.540Z,0.43
2023-04-08T19:03:52.981Z,0.57
2023-04-08T19:06:26.128Z,0.73
2023-04-08T19:08:53.950Z,0.50
2023-04-08T19:11:31.852Z,0.52
2023-04-08T19:13:59.961Z,0.93
2023-04-08T19:16:27.748Z,0.60
2023-04-08T19:18:57.226Z,1.40
2023-04-08T19:21:30.013Z,1.23
2023-04-08T19:24:00.193Z,0.65
2023-04-08T19:26:28.132Z,0.63
2023-04-08T19:28:58.067Z,0.52
2023-04-08T19:31:26.030Z,0.68
2023-04-08T19:33:54.016Z,0.88
2023-04-08T19:36:21.988Z,0.80
2023-04-08T19:38:51.105Z,1.00
2023-04-08T19:41:19.091Z,0.65
2023-04-08T19:43:47.663Z,0.73
2023-04-08T19:46:15.922Z,0.68
2023-04-08T19:48:44.375Z,0.75
2023-04-08T19:51:17.006Z,1.83
2023-04-08T19:53:44.939Z,0.50
2023-04-08T19:56:14.611Z,0.50
2023-04-08T19:58:42.533Z,1.65
2023-04-08T20:01:10.374Z,1.73
2023-04-08T20:03:38.327Z,1.45
2023-04-08T20:06:06.080Z,1.85
2023-04-08T20:08:34.600Z,1.23
2023-04-08T20:11:04.615Z,1.30
2023-04-08T20:13:34.109Z,0.68
2023-04-08T20:16:02.825Z,1.33
2023-04-08T20:18:30.710Z,1.38
2023-04-08T20:20:59.560Z,0.75
2023-04-08T20:23:28.470Z,2.92
2023-04-08T20:25:56.617Z,3.85
2023-04-08T20:28:25.650Z,5.07
2023-04-08T20:30:54.901Z,8.30
2023-04-08T20:33:22.650Z,5.90
2023-04-08T20:35:53.127Z,3.78
2023-04-08T20:38:21.624Z,4.10
2023-04-08T20:40:50.468Z,3.42
2023-04-08T20:43:18.278Z,1.38
2023-04-08T20:45:46.124Z,2.05
2023-04-08T20:48:16.542Z,3.53
2023-04-08T20:50:44.974Z,1.73
2023-04-08T20:53:12.831Z,2.97
2023-04-08T20:55:40.644Z,2.33
2023-04-08T20:58:08.434Z,1.92
2023-04-08T21:00:36.177Z,1.70
2023-04-08T21:03:04.268Z,2.00
2023-04-08T21:05:37.902Z,1.85
2023-04-08T21:08:07.832Z,2.70
2023-04-08T21:10:35.762Z,0.75
2023-04-08T21:13:03.946Z,1.45
2023-04-08T21:15:33.023Z,1.40
2023-04-08T21:18:01.250Z,2.10
2023-04-08T21:20:29.138Z,1.05
2023-04-08T21:22:59.472Z,1.38
2023-04-08T21:25:31.058Z,1.13
2023-04-08T21:28:05.049Z,1.02
2023-04-08T21:30:33.056Z,1.40
2023-04-08T21:33:01.758Z,1.90
2023-04-08T21:35:31.843Z,1.92
2023-04-08T21:38:03.337Z,2.30
2023-04-08T21:40:31.593Z,2.47
2023-04-08T21:43:00.689Z,3.05
2023-04-08T21:45:28.873Z,2.47
2023-04-08T21:47:58.602Z,2.00
2023-04-08T21:50:26.518Z,1.75
2023-04-08T21:52:54.426Z,1.98
2023-04-08T21:55:23.770Z,2.05
2023-04-08T21:57:51.607Z,2.78
2023-04-08T22:00:19.405Z,1.80
2023-04-08T22:02:47.530Z,2.88
2023-04-08T22:05:15.550Z,3.25
2023-04-08T22:07:43.526Z,3.42
2023-04-08T22:10:12.495Z,4.88
2023-04-08T22:12:41.662Z,4.35
2023-04-08T22:15:11.135Z,4.90
2023-04-08T22:17:39.201Z,3.80
2023-04-08T22:20:07.932Z,5.60
2023-04-08T22:22:35.722Z,2.92
2023-04-08T22:25:03.558Z,4.95
2023-04-08T22:27:31.409Z,2.85
2023-04-08T22:30:01.168Z,5.05
2023-04-08T22:32:29.235Z,2.20
2023-04-08T22:34:57.154Z,4.82
2023-04-08T22:37:25.565Z,3.28
2023-04-08T22:39:53.650Z,2.17
2023-04-08T22:42:21.785Z,4.07
2023-04-08T22:44:49.874Z,2.55
2023-04-08T22:47:19.318Z,4.63
2023-04-08T22:49:47.299Z,4.18
2023-04-08T22:52:15.671Z,2.70
2023-04-08T22:54:44.073Z,4.05
2023-04-08T22:57:12.220Z,2.45
2023-04-08T22:59:40.595Z,2.45
2023-04-08T23:02:08.665Z,3.88
2023-04-08T23:04:38.434Z,2.50
2023-04-08T23:07:06.248Z,2.85
2023-04-08T23:09:34.282Z,2.90
2023-04-08T23:12:02.720Z,3.90
2023-04-08T23:14:30.693Z,4.20
2023-04-08T23:16:58.972Z,3.38
2023-04-08T23:19:27.269Z,4.90
2023-04-08T23:21:57.545Z,4.35
2023-04-08T23:24:25.484Z,4.05
2023-04-08T23:26:53.488Z,4.53
2023-04-08T23:29:21.784Z,4.05
2023-04-08T23:31:49.654Z,4.57
2023-04-08T23:34:17.950Z,3.47
2023-04-08T23:36:46.035Z,4.47
2023-04-08T23:39:15.818Z,5.70
2023-04-08T23:41:43.891Z,5.07
2023-04-08T23:44:14.803Z,3.95
2023-04-08T23:46:42.942Z,6.10
2023-04-08T23:49:11.635Z,4.50
2023-04-08T23:51:40.187Z,7.05
2023-04-08T23:54:08.123Z,4.60
2023-04-08T23:56:37.335Z,7.15
2023-04-08T23:59:05.537Z,6.75
